createdAt,value
2019-04-28T00:01:05.872Z,12.00
2019-04-28T00:03:35.506Z,12.00
2019-04-28T00:06:05.190Z,12.00
2019-04-28T00:08:34.644Z,12.00
2019-04-28T00:11:04.151Z,12.00
2019-04-28T00:13:33.676Z,12.00
2019-04-28T00:16:04.020Z,12.00
2019-04-28T00:18:33.609Z,12.00
2019-04-28T00:21:22.088Z,12.00
2019-04-28T00:24:04.173Z,12.00
2019-04-28T00:26:41.298Z,11.90
2019-04-28T00:29:11.217Z,12.00
2019-04-28T00:31:41.491Z,11.90
2019-04-28T00:34:11.553Z,11.90
2019-04-28T00:36:42.979Z,11.90
2019-04-28T00:39:12.908Z,11.90
2019-04-28T00:41:42.354Z,11.90
2019-04-28T00:44:12.349Z,11.90
2019-04-28T00:46:43.319Z,11.90
2019-04-28T00:49:13.002Z,11.90
2019-04-28T00:51:42.846Z,11.80
2019-04-28T00:54:12.750Z,11.80
2019-04-28T00:56:42.535Z,11.80
2019-04-28T00:59:12.317Z,11.80
2019-04-28T01:01:48.038Z,11.80
2019-04-28T01:04:17.680Z,11.80
2019-04-28T01:06:47.143Z,11.80
2019-04-28T01:09:16.789Z,11.80
2019-04-28T01:11:46.559Z,11.80
2019-04-28T01:14:16.393Z,11.70
2019-04-28T01:17:01.286Z,11.70
2019-04-28T01:19:33.956Z,11.70
2019-04-28T01:22:13.819Z,11.70
2019-04-28T01:24:43.732Z,11.70
2019-04-28T01:27:32.746Z,11.70
2019-04-28T01:30:10.622Z,11.60
2019-04-28T01:32:41.607Z,11.60
2019-04-28T01:35:11.502Z,11.60
2019-04-28T01:37:41.087Z,11.60
2019-04-28T01:40:10.899Z,11.50
2019-04-28T01:42:41.272Z,11.50
2019-04-28T01:45:11.552Z,11.50
2019-04-28T01:47:41.125Z,11.50
2019-04-28T01:50:10.706Z,11.50
2019-04-28T01:52:40.295Z,11.50
2019-04-28T01:55:10.415Z,11.50
2019-04-28T01:57:40.200Z,11.50
2019-04-28T02:00:22.318Z,11.50
2019-04-28T02:02:44.578Z,11.50
2019-04-28T02:05:15.125Z,11.50
2019-04-28T02:07:44.755Z,11.50
2019-04-28T02:10:14.220Z,11.50
2019-04-28T02:12:43.947Z,11.50
2019-04-28T02:15:13.943Z,11.50
2019-04-28T02:17:43.840Z,11.60
2019-04-28T02:20:13.600Z,11.50
2019-04-28T02:22:51.993Z,11.50
2019-04-28T02:25:21.469Z,11.50
2019-04-28T02:27:51.060Z,11.50
2019-04-28T02:30:32.393Z,11.60
2019-04-28T02:32:52.208Z,11.60
2019-04-28T02:35:21.715Z,11.60
2019-04-28T02:37:51.613Z,11.60
2019-04-28T02:40:21.453Z,11.50
2019-04-28T02:42:52.150Z,11.60
2019-04-28T02:45:22.805Z,11.60
2019-04-28T02:47:54.409Z,11.60
2019-04-28T02:50:35.889Z,11.60
2019-04-28T02:53:14.904Z,11.60
2019-04-28T02:55:44.539Z,11.60
2019-04-28T02:58:13.944Z,11.60
2019-04-28T03:01:01.122Z,11.60
2019-04-28T03:03:14.515Z,11.60
2019-04-28T03:05:44.232Z,11.60
2019-04-28T03:08:13.729Z,11.60
2019-04-28T03:10:43.280Z,11.60
2019-04-28T03:13:13.376Z,11.60
2019-04-28T03:15:43.939Z,11.60
2019-04-28T03:18:13.726Z,11.60
2019-04-28T03:20:43.249Z,11.60
2019-04-28T03:23:12.684Z,11.60
2019-04-28T03:25:57.654Z,11.60
2019-04-28T03:28:35.628Z,11.50
2019-04-28T03:31:53.505Z,11.60
2019-04-28T03:33:55.999Z,11.60
2019-04-28T03:36:25.214Z,11.60
2019-04-28T03:38:54.744Z,11.50
2019-04-28T03:41:24.219Z,11.50
2019-04-28T03:43:53.579Z,11.50
2019-04-28T03:46:25.994Z,11.50
2019-04-28T03:48:55.349Z,11.50
2019-04-28T03:51:24.856Z,11.50
2019-04-28T03:53:54.253Z,11.50
2019-04-28T03:56:23.861Z,11.50
2019-04-28T03:58:53.396Z,11.50
2019-04-28T04:01:23.099Z,11.50
2019-04-28T04:03:52.572Z,11.50
2019-04-28T04:06:24.340Z,11.50
2019-04-28T04:08:53.915Z,11.50
2019-04-28T04:11:35.932Z,11.50
2019-04-28T04:14:23.375Z,11.50
2019-04-28T04:17:11.242Z,11.50
2019-04-28T04:19:40.837Z,11.50
2019-04-28T04:22:10.440Z,11.40
2019-04-28T04:24:40.661Z,11.40
2019-04-28T04:27:10.804Z,11.40
2019-04-28T04:29:41.187Z,11.50
2019-04-28T04:32:20.526Z,11.50
2019-04-28T04:34:42.702Z,11.50
2019-04-28T04:37:12.711Z,11.50
2019-04-28T04:39:42.372Z,11.50
2019-04-28T04:42:11.904Z,11.50
2019-04-28T04:44:41.684Z,11.50
2019-04-28T04:47:11.165Z,11.50
2019-04-28T04:49:40.653Z,11.50
2019-04-28T04:52:10.557Z,11.50
2019-04-28T04:54:40.299Z,11.50
2019-04-28T04:57:11.119Z,11.50
2019-04-28T04:59:40.826Z,11.50
2019-04-28T05:02:32.882Z,11.50
2019-04-28T05:05:11.855Z,11.60
2019-04-28T05:07:41.236Z,11.60
2019-04-28T05:10:11.058Z,11.60
2019-04-28T05:12:40.497Z,11.60
2019-04-28T05:15:10.445Z,11.60
2019-04-28T05:17:40.259Z,11.60
2019-04-28T05:20:09.947Z,11.70
2019-04-28T05:22:45.938Z,11.70
2019-04-28T05:25:24.568Z,11.70
2019-04-28T05:27:58.617Z,11.70
2019-04-28T05:30:26.076Z,11.70
2019-04-28T05:32:56.541Z,11.80
2019-04-28T05:35:26.717Z,11.80
2019-04-28T05:37:56.294Z,11.70
2019-04-28T05:40:25.995Z,11.80
2019-04-28T05:43:01.392Z,11.80
2019-04-28T05:45:32.315Z,11.80
2019-04-28T05:48:02.028Z,11.80
2019-04-28T05:50:36.673Z,11.90
2019-04-28T05:53:31.032Z,11.80
2019-04-28T05:56:22.359Z,11.80
2019-04-28T05:59:09.735Z,11.90
2019-04-28T06:02:01.075Z,11.90
2019-04-28T06:04:30.631Z,11.90
2019-04-28T06:07:06.159Z,11.90
2019-04-28T06:09:42.707Z,11.90
2019-04-28T06:12:13.889Z,11.90
2019-04-28T06:14:43.370Z,11.90
2019-04-28T06:17:12.717Z,12.00
2019-04-28T06:19:42.034Z,12.00
2019-04-28T06:22:11.503Z,12.00
2019-04-28T06:24:41.089Z,12.00
2019-04-28T06:27:10.523Z,12.00
2019-04-28T06:29:40.232Z,12.00
2019-04-28T06:32:09.660Z,12.00
2019-04-28T06:34:39.055Z,12.00
2019-04-28T06:37:08.523Z,12.00
2019-04-28T06:39:38.046Z,12.00
2019-04-28T06:42:07.430Z,12.00
2019-04-28T06:44:36.965Z,12.00
2019-04-28T06:47:06.314Z,12.00
2019-04-28T06:49:36.302Z,12.00
2019-04-28T06:52:05.818Z,12.10
2019-04-28T06:54:35.158Z,12.10
2019-04-28T06:57:04.580Z,12.10
2019-04-28T06:59:34.333Z,12.10
2019-04-28T07:02:03.755Z,12.10
2019-04-28T07:04:33.278Z,12.10
2019-04-28T07:07:02.590Z,12.10
2019-04-28T07:09:31.981Z,12.00
2019-04-28T07:12:01.490Z,12.00
2019-04-28T07:14:32.334Z,12.10
2019-04-28T07:17:01.726Z,12.10
2019-04-28T07:19:33.468Z,12.10
2019-04-28T07:22:10.068Z,12.10
2019-04-28T07:24:39.485Z,12.00
2019-04-28T07:27:09.204Z,12.10
2019-04-28T07:29:38.654Z,12.10
2019-04-28T07:32:08.281Z,12.10
2019-04-28T07:34:37.680Z,12.10
2019-04-28T07:37:07.114Z,12.10
2019-04-28T07:39:36.641Z,12.10
2019-04-28T07:42:06.241Z,12.00
2019-04-28T07:44:37.675Z,12.00
2019-04-28T07:47:07.336Z,12.00
2019-04-28T07:49:36.746Z,12.00
2019-04-28T07:52:30.560Z,12.00
2019-04-28T07:54:59.889Z,12.00
2019-04-28T07:57:29.293Z,12.00
2019-04-28T07:59:58.856Z,12.00
2019-04-28T08:02:28.497Z,11.90
2019-04-28T08:04:58.118Z,11.90
2019-04-28T08:07:27.557Z,11.90
2019-04-28T08:09:56.981Z,11.90
2019-04-28T08:12:26.360Z,11.90
2019-04-28T08:14:57.979Z,11.90
2019-04-28T08:17:27.491Z,11.90
2019-04-28T08:19:56.893Z,11.90
2019-04-28T08:22:26.311Z,11.90
2019-04-28T08:24:58.016Z,11.90
2019-04-28T08:27:27.584Z,11.90
2019-04-28T08:29:58.744Z,12.00
2019-04-28T08:32:56.350Z,12.00
2019-04-28T08:35:25.799Z,12.00
2019-04-28T08:37:55.054Z,12.00
2019-04-28T08:40:24.597Z,12.00
2019-04-28T08:42:54.268Z,12.00
2019-04-28T08:45:23.675Z,12.00
2019-04-28T08:47:53.163Z,12.00
2019-04-28T08:50:22.714Z,12.00
2019-04-28T08:52:52.062Z,12.00
2019-04-28T08:55:21.531Z,12.00
2019-04-28T08:57:50.927Z,12.10
2019-04-28T09:00:21.318Z,12.10
2019-04-28T09:02:50.659Z,12.10
2019-04-28T09:05:20.091Z,12.00
2019-04-28T09:07:49.469Z,12.00
2019-04-28T09:10:18.699Z,12.00
2019-04-28T09:12:48.070Z,12.00
2019-04-28T09:15:17.693Z,11.90
2019-04-28T09:17:47.127Z,12.00
2019-04-28T09:20:16.472Z,11.90
2019-04-28T09:22:45.860Z,11.90
2019-04-28T09:25:15.539Z,11.90
2019-04-28T09:27:44.952Z,11.90
2019-04-28T09:30:15.398Z,11.90
2019-04-28T09:32:44.875Z,11.90
2019-04-28T09:35:14.609Z,11.90
2019-04-28T09:37:44.171Z,12.00
2019-04-28T09:40:15.159Z,11.90
2019-04-28T09:43:02.333Z,12.00
2019-04-28T09:45:41.438Z,12.00
2019-04-28T09:48:10.803Z,11.90
2019-04-28T09:50:40.092Z,11.90
2019-04-28T09:53:09.417Z,11.90
2019-04-28T09:55:38.754Z,11.90
2019-04-28T09:58:08.149Z,11.90
2019-04-28T10:00:38.930Z,11.90
2019-04-28T10:03:08.330Z,11.90
2019-04-28T10:05:37.784Z,12.00
2019-04-28T10:08:07.185Z,12.00
2019-04-28T10:10:36.646Z,12.00
2019-04-28T10:13:06.046Z,12.00
2019-04-28T10:15:35.557Z,12.00
2019-04-28T10:18:04.886Z,12.10
2019-04-28T10:20:34.277Z,12.10
2019-04-28T10:23:03.638Z,12.10
2019-04-28T10:25:33.038Z,12.10
2019-04-28T10:28:02.412Z,12.10
2019-04-28T10:30:34.070Z,12.10
2019-04-28T10:33:03.368Z,12.20
2019-04-28T10:35:32.790Z,12.20
2019-04-28T10:38:02.207Z,12.20
2019-04-28T10:40:40.034Z,12.20
2019-04-28T10:43:09.409Z,12.30
2019-04-28T10:45:47.362Z,12.30
2019-04-28T10:48:16.726Z,12.30
2019-04-28T10:50:46.033Z,12.30
2019-04-28T10:53:16.210Z,12.30
2019-04-28T10:55:45.671Z,12.30
2019-04-28T10:58:15.323Z,12.30
2019-04-28T11:00:44.777Z,12.30
2019-04-28T11:03:16.988Z,12.30
2019-04-28T11:05:47.935Z,12.30
2019-04-28T11:08:35.358Z,12.30
2019-04-28T11:11:13.262Z,12.30
2019-04-28T11:13:42.591Z,12.40
2019-04-28T11:16:14.386Z,12.40
2019-04-28T11:18:43.722Z,12.40
2019-04-28T11:21:13.002Z,12.40
2019-04-28T11:23:42.370Z,12.40
2019-04-28T11:26:11.733Z,12.50
2019-04-28T11:28:41.121Z,12.50
2019-04-28T11:31:10.490Z,12.40
2019-04-28T11:33:59.895Z,12.40
2019-04-28T11:36:28.646Z,12.40
2019-04-28T11:38:58.073Z,12.40
2019-04-28T11:41:27.594Z,12.40
2019-04-28T11:43:57.014Z,12.50
2019-04-28T11:46:27.797Z,12.50
2019-04-28T11:48:57.197Z,12.50
2019-04-28T11:51:26.658Z,12.50
2019-04-28T11:53:56.323Z,12.50
2019-04-28T11:56:25.710Z,12.50
2019-04-28T11:58:55.210Z,12.50
2019-04-28T12:01:24.526Z,12.50
2019-04-28T12:03:57.536Z,12.50
2019-04-28T12:06:26.888Z,12.40
2019-04-28T12:09:00.643Z,12.40
2019-04-28T12:11:32.768Z,12.50
2019-04-28T12:14:24.622Z,12.40
2019-04-28T12:17:06.459Z,12.40
2019-04-28T12:19:58.449Z,12.50
2019-04-28T12:22:28.058Z,12.50
2019-04-28T12:24:57.501Z,12.50
2019-04-28T12:27:27.490Z,12.40
2019-04-28T12:29:56.775Z,12.40
2019-04-28T12:32:26.508Z,12.40
2019-04-28T12:34:57.337Z,12.40
2019-04-28T12:37:26.806Z,12.40
2019-04-28T12:39:57.397Z,12.40
2019-04-28T12:42:26.903Z,12.40
2019-04-28T12:44:56.574Z,12.40
2019-04-28T12:47:26.022Z,12.40
2019-04-28T12:50:00.681Z,12.40
2019-04-28T12:52:30.194Z,12.40
2019-04-28T12:54:59.858Z,12.40
2019-04-28T12:57:32.613Z,12.40
2019-04-28T13:00:13.416Z,12.50
2019-04-28T13:03:01.907Z,12.40
2019-04-28T13:05:33.287Z,12.50
2019-04-28T13:08:02.576Z,12.50
2019-04-28T13:10:32.188Z,12.40
2019-04-28T13:13:01.653Z,12.50
2019-04-28T13:15:31.023Z,12.50
2019-04-28T13:18:00.400Z,12.50
2019-04-28T13:20:29.803Z,12.50
2019-04-28T13:22:59.450Z,12.40
2019-04-28T13:25:28.810Z,12.50
2019-04-28T13:27:58.413Z,12.40
2019-04-28T13:30:28.255Z,12.50
2019-04-28T13:32:57.725Z,12.50
2019-04-28T13:35:27.628Z,12.50
2019-04-28T13:37:57.127Z,12.50
2019-04-28T13:40:30.401Z,12.40
2019-04-28T13:42:59.820Z,12.40
2019-04-28T13:45:31.618Z,12.40
2019-04-28T13:48:01.258Z,12.40
2019-04-28T13:50:36.309Z,12.40
2019-04-28T13:53:06.621Z,12.40
2019-04-28T13:56:05.073Z,12.40
2019-04-28T13:58:52.812Z,12.40
2019-04-28T14:01:35.814Z,12.30
2019-04-28T14:04:24.466Z,12.30
2019-04-28T14:06:58.915Z,12.30
2019-04-28T14:09:28.249Z,12.30
2019-04-28T14:11:57.796Z,12.20
2019-04-28T14:14:27.247Z,12.20
2019-04-28T14:16:56.618Z,12.20
2019-04-28T14:19:26.007Z,12.30
2019-04-28T14:21:55.471Z,12.20
2019-04-28T14:24:24.891Z,12.30
2019-04-28T14:26:54.294Z,12.30
2019-04-28T14:29:23.704Z,12.30
2019-04-28T14:31:53.147Z,12.30
2019-04-28T14:34:22.990Z,12.30
2019-04-28T14:36:52.719Z,12.30
2019-04-28T14:39:22.104Z,12.30
2019-04-28T14:41:51.608Z,12.30
2019-04-28T14:44:21.044Z,12.30
2019-04-28T14:47:00.330Z,12.30
2019-04-28T14:49:29.799Z,12.20
2019-04-28T14:51:59.589Z,12.20
2019-04-28T14:54:28.983Z,12.20
2019-04-28T14:56:58.646Z,12.10
2019-04-28T14:59:28.238Z,12.10
2019-04-28T15:02:22.623Z,12.10
2019-04-28T15:05:13.919Z,12.10
2019-04-28T15:07:52.607Z,12.10
2019-04-28T15:10:31.667Z,12.10
2019-04-28T15:13:01.636Z,12.00
2019-04-28T15:15:31.113Z,12.00
2019-04-28T15:18:00.580Z,11.90
2019-04-28T15:20:30.873Z,11.90
2019-04-28T15:23:00.433Z,11.90
2019-04-28T15:25:30.074Z,11.90
2019-04-28T15:27:59.463Z,12.00
2019-04-28T15:30:28.759Z,12.00
2019-04-28T15:32:58.212Z,12.00
2019-04-28T15:35:27.605Z,11.90
2019-04-28T15:37:57.120Z,11.90
2019-04-28T15:40:26.596Z,11.90
2019-04-28T15:42:56.169Z,11.90
2019-04-28T15:45:28.554Z,11.90
2019-04-28T15:47:57.935Z,11.80
2019-04-28T15:50:27.473Z,11.80
2019-04-28T15:52:56.972Z,11.80
2019-04-28T15:55:33.142Z,11.80
2019-04-28T15:58:21.610Z,11.70
2019-04-28T16:00:51.038Z,11.70
2019-04-28T16:03:20.390Z,11.60
2019-04-28T16:05:49.855Z,11.60
2019-04-28T16:08:19.180Z,11.50
2019-04-28T16:10:48.689Z,11.50
2019-04-28T16:13:18.216Z,11.50
2019-04-28T16:15:47.902Z,11.40
2019-04-28T16:18:17.305Z,11.40
2019-04-28T16:20:46.633Z,11.30
2019-04-28T16:23:19.026Z,11.30
2019-04-28T16:25:51.395Z,11.30
2019-04-28T16:28:20.831Z,11.30
2019-04-28T16:30:50.237Z,11.30
2019-04-28T16:33:19.556Z,11.30
2019-04-28T16:35:49.034Z,11.30
2019-04-28T16:38:18.531Z,11.40
2019-04-28T16:40:51.323Z,11.40
2019-04-28T16:43:24.654Z,11.40
2019-04-28T16:45:54.256Z,11.30
2019-04-28T16:48:23.599Z,11.30
2019-04-28T16:50:53.328Z,11.30
2019-04-28T16:53:22.734Z,11.30
2019-04-28T16:56:17.283Z,11.30
2019-04-28T16:59:14.898Z,11.20
2019-04-28T17:02:06.905Z,11.10
2019-04-28T17:04:36.447Z,11.20
2019-04-28T17:07:05.723Z,11.10
2019-04-28T17:09:35.063Z,11.10
2019-04-28T17:12:04.574Z,11.00
2019-04-28T17:14:33.994Z,11.00
2019-04-28T17:17:03.790Z,11.00
2019-04-28T17:19:33.376Z,11.00
2019-04-28T17:22:02.758Z,10.90
2019-04-28T17:24:32.203Z,10.90
2019-04-28T17:27:01.777Z,10.90
2019-04-28T17:29:31.143Z,10.90
2019-04-28T17:32:00.494Z,11.00
2019-04-28T17:34:29.993Z,10.90
2019-04-28T17:36:59.264Z,10.90
2019-04-28T17:39:29.974Z,10.90
2019-04-28T17:41:59.472Z,10.90
2019-04-28T17:44:28.852Z,10.90
2019-04-28T17:46:58.341Z,10.90
2019-04-28T17:49:32.267Z,10.90
2019-04-28T17:52:01.676Z,10.80
2019-04-28T17:54:31.219Z,10.90
2019-04-28T17:57:00.866Z,10.80
2019-04-28T17:59:30.310Z,10.80
2019-04-28T18:02:24.790Z,10.80
2019-04-28T18:05:02.894Z,10.80
2019-04-28T18:07:34.519Z,10.80
2019-04-28T18:10:05.189Z,10.70
2019-04-28T18:12:35.095Z,10.70
2019-04-28T18:15:25.959Z,10.70
2019-04-28T18:18:12.843Z,10.70
2019-04-28T18:20:42.239Z,10.60
2019-04-28T18:23:11.691Z,10.60
2019-04-28T18:25:41.103Z,10.60
2019-04-28T18:28:10.459Z,10.60
2019-04-28T18:30:44.426Z,10.60
2019-04-28T18:33:50.962Z,10.50
2019-04-28T18:36:27.431Z,10.50
2019-04-28T18:39:03.203Z,10.50
2019-04-28T18:41:58.322Z,10.50
2019-04-28T18:44:27.712Z,10.50
2019-04-28T18:46:57.162Z,10.50
2019-04-28T18:49:27.131Z,10.40
2019-04-28T18:51:56.466Z,10.40
2019-04-28T18:54:25.939Z,10.40
2019-04-28T18:56:55.373Z,10.40
2019-04-28T18:59:24.739Z,10.40
2019-04-28T19:02:15.919Z,10.30
2019-04-28T19:04:45.414Z,10.30
2019-04-28T19:07:18.216Z,10.30
2019-04-28T19:09:53.702Z,10.30
2019-04-28T19:12:47.900Z,10.30
2019-04-28T19:15:48.195Z,10.30
2019-04-28T19:18:23.307Z,10.30
2019-04-28T19:20:54.667Z,10.30
2019-04-28T19:23:24.011Z,10.30
2019-04-28T19:25:53.434Z,10.30
2019-04-28T19:28:22.804Z,10.30
2019-04-28T19:30:52.104Z,10.30
2019-04-28T19:33:21.615Z,10.30
2019-04-28T19:35:51.043Z,10.30
2019-04-28T19:38:20.492Z,10.30
2019-04-28T19:40:49.779Z,10.30
2019-04-28T19:43:19.629Z,10.20
2019-04-28T19:45:50.937Z,10.20
2019-04-28T19:48:20.362Z,10.20
2019-04-28T19:50:49.880Z,10.20
2019-04-28T19:53:19.287Z,10.20
2019-04-28T19:55:56.354Z,10.20
2019-04-28T19:58:33.366Z,10.10
2019-04-28T20:01:07.749Z,10.20
2019-04-28T20:03:37.074Z,10.20
2019-04-28T20:06:06.607Z,10.20
2019-04-28T20:08:36.511Z,10.20
2019-04-28T20:11:05.967Z,10.20
2019-04-28T20:13:35.503Z,10.20
2019-04-28T20:16:05.031Z,10.20
2019-04-28T20:18:34.283Z,10.10
2019-04-28T20:21:03.628Z,10.10
2019-04-28T20:23:33.979Z,10.10
2019-04-28T20:26:03.628Z,10.10
2019-04-28T20:28:33.038Z,10.10
2019-04-28T20:31:05.582Z,10.10
2019-04-28T20:33:35.025Z,10.10
2019-04-28T20:36:10.601Z,10.10
2019-04-28T20:38:40.019Z,10.00
2019-04-28T20:41:20.885Z,10.00
2019-04-28T20:43:50.279Z,9.90
2019-04-28T20:46:19.680Z,9.90
2019-04-28T20:48:49.197Z,9.90
2019-04-28T20:51:18.633Z,9.90
2019-04-28T20:53:49.820Z,9.80
2019-04-28T20:56:19.353Z,9.80
2019-04-28T20:58:48.830Z,9.80
2019-04-28T21:01:18.142Z,9.80
2019-04-28T21:03:48.000Z,9.80
2019-04-28T21:06:17.380Z,9.80
2019-04-28T21:08:47.940Z,9.80
2019-04-28T21:11:17.494Z,9.80
2019-04-28T21:13:47.171Z,9.70
2019-04-28T21:16:16.717Z,9.70
2019-04-28T21:18:46.073Z,9.70
2019-04-28T21:21:15.300Z,9.70
2019-04-28T21:23:44.743Z,9.70
2019-04-28T21:26:14.051Z,9.80
2019-04-28T21:28:43.530Z,9.80
2019-04-28T21:31:12.859Z,9.80
2019-04-28T21:33:42.146Z,9.80
2019-04-28T21:36:11.569Z,9.80
2019-04-28T21:38:41.006Z,9.80
2019-04-28T21:41:12.124Z,9.80
2019-04-28T21:43:48.029Z,9.80
2019-04-28T21:46:23.543Z,9.80
2019-04-28T21:48:56.451Z,9.80
2019-04-28T21:51:25.695Z,9.90
2019-04-28T21:53:54.978Z,9.90
2019-04-28T21:56:24.300Z,9.90
2019-04-28T21:58:53.686Z,9.90
2019-04-28T22:01:24.090Z,9.90
2019-04-28T22:03:53.398Z,9.90
2019-04-28T22:06:22.951Z,9.90
2019-04-28T22:08:52.322Z,9.90
2019-04-28T22:11:21.685Z,9.90
2019-04-28T22:13:51.072Z,9.90
2019-04-28T22:16:20.577Z,9.90
2019-04-28T22:18:50.044Z,9.90
2019-04-28T22:21:19.446Z,9.90
2019-04-28T22:24:04.105Z,9.90
2019-04-28T22:26:44.320Z,9.90
2019-04-28T22:29:13.698Z,9.90
2019-04-28T22:31:43.369Z,9.90
2019-04-28T22:34:14.539Z,9.90
2019-04-28T22:36:45.092Z,9.90
2019-04-28T22:39:14.948Z,9.90
2019-04-28T22:41:44.378Z,9.90
2019-04-28T22:44:13.823Z,9.90
2019-04-28T22:46:43.274Z,9.90
2019-04-28T22:49:12.669Z,9.90
2019-04-28T22:51:42.236Z,9.90
2019-04-28T22:54:24.216Z,9.90
2019-04-28T22:57:00.067Z,9.90
2019-04-28T22:59:33.208Z,9.90
2019-04-28T23:02:16.797Z,9.80
2019-04-28T23:05:11.476Z,9.80
2019-04-28T23:07:40.882Z,9.80
2019-04-28T23:10:10.414Z,9.80
2019-04-28T23:12:39.873Z,9.80
2019-04-28T23:15:09.549Z,9.80
2019-04-28T23:17:39.013Z,9.90
2019-04-28T23:20:12.195Z,9.90
2019-04-28T23:22:47.343Z,9.90
2019-04-28T23:25:17.108Z,9.90
2019-04-28T23:27:46.550Z,9.90
2019-04-28T23:30:36.649Z,9.90
2019-04-28T23:33:06.064Z,9.90
2019-04-28T23:35:35.385Z,9.90
2019-04-28T23:38:04.804Z,9.90
2019-04-28T23:40:35.019Z,9.90
2019-04-28T23:43:07.714Z,9.90
2019-04-28T23:45:37.318Z,9.90
2019-04-28T23:48:06.682Z,9.90
2019-04-28T23:50:45.430Z,9.90
2019-04-28T23:53:17.060Z,9.90
2019-04-28T23:55:46.450Z,10.00
2019-04-28T23:58:15.929Z,10.00
